sensor_id;sensor_type;location;lat;lon;timestamp;P1;P4;P2;P0;N10;N4;N25;N1;N05;TS
43196;SPS30;28816;49.852;18.282;2024-02-15T00:00:40;10.410000;;10.400000;9.860000;;;;;;
43196;SPS30;28816;49.852;18.282;2024-02-15T00:05:42;10.330000;;10.360000;9.720000;;;;;;
43196;SPS30;28816;49.852;18.282;2024-02-15T00:10:45;11.100000;;11.050000;10.490000;;;;;;
43196;SPS30;28816;49.852;18.282;2024-02-15T00:15:47;10.930000;;10.840000;10.090000;;;;;;
43196;SPS30;28816;49.852;18.282;2024-02-15T00:20:49;11.580000;;11.570000;11.010000;;;;;;
43196;SPS30;28816;49.852;18.282;2024-02-15T00:25:51;11.100000;;11.030000;10.240000;;;;;;
43196;SPS30;28816;49.852;18.282;2024-02-15T00:30:53;10.390000;;10.530000;9.770000;;;;;;
43196;SPS30;28816;49.852;18.282;2024-02-15T00:35:55;10.540000;;10.520000;9.870000;;;;;;
43196;SPS30;28816;49.852;18.282;2024-02-15T00:40:57;10.760000;;10.810000;10.150000;;;;;;
43196;SPS30;28816;49.852;18.282;2024-02-15T00:45:59;10.960000;;10.990000;10.300000;;;;;;
43196;SPS30;28816;49.852;18.282;2024-02-15T00:51:01;10.340000;;10.300000;9.800000;;;;;;
43196;SPS30;28816;49.852;18.282;2024-02-15T00:56:03;10.580000;;10.520000;9.870000;;;;;;
43196;SPS30;28816;49.852;18.282;2024-02-15T01:01:11;11.880000;;11.800000;11.260000;;;;;;
43196;SPS30;28816;49.852;18.282;2024-02-15T01:06:14;11.460000;;11.370000;10.740000;;;;;;
43196;SPS30;28816;49.852;18.282;2024-02-15T01:11:16;10.780000;;10.660000;10.120000;;;;;;
43196;SPS30;28816;49.852;18.282;2024-02-15T01:16:18;10.820000;;10.690000;10.250000;;;;;;
43196;SPS30;28816;49.852;18.282;2024-02-15T01:21:20;11.000000;;10.930000;10.440000;;;;;;
43196;SPS30;28816;49.852;18.282;2024-02-15T01:26:22;10.540000;;10.510000;10.020000;;;;;;
43196;SPS30;28816;49.852;18.282;2024-02-15T01:31:24;11.960000;;11.850000;11.250000;;;;;;
43196;SPS30;28816;49.852;18.282;2024-02-15T01:36:26;11.710000;;11.650000;11.060000;;;;;;
43196;SPS30;28816;49.852;18.282;2024-02-15T01:41:28;11.320000;;11.340000;10.680000;;;;;;
43196;SPS30;28816;49.852;18.282;2024-02-15T01:46:30;10.690000;;10.690000;10.020000;;;;;;
43196;SPS30;28816;49.852;18.282;2024-02-15T01:51:32;11.060000;;11.170000;10.360000;;;;;;
43196;SPS30;28816;49.852;18.282;2024-02-15T01:56:34;10.720000;;10.610000;10.030000;;;;;;
43196;SPS30;28816;49.852;18.282;2024-02-15T02:01:37;10.610000;;10.580000;10.040000;;;;;;
43196;SPS30;28816;49.852;18.282;2024-02-15T02:06:39;11.380000;;11.300000;10.800000;;;;;;
43196;SPS30;28816;49.852;18.282;2024-02-15T02:11:41;10.180000;;10.190000;9.590000;;;;;;
43196;SPS30;28816;49.852;18.282;2024-02-15T02:16:44;10.410000;;10.370000;9.870000;;;;;;
43196;SPS30;28816;49.852;18.282;2024-02-15T02:21:46;9.820000;;9.710000;9.180000;;;;;;
43196;SPS30;28816;49.852;18.282;2024-02-15T02:26:48;9.780000;;9.770000;9.250000;;;;;;
43196;SPS30;28816;49.852;18.282;2024-02-15T02:31:50;9.580000;;9.660000;8.960000;;;;;;
43196;SPS30;28816;49.852;18.282;2024-02-15T02:36:53;10.090000;;10.090000;9.530000;;;;;;
43196;SPS30;28816;49.852;18.282;2024-02-15T02:41:55;11.750000;;11.770000;11.070000;;;;;;
43196;SPS30;28816;49.852;18.282;2024-02-15T02:46:57;9.990000;;10.030000;9.500000;;;;;;
43196;SPS30;28816;49.852;18.282;2024-02-15T02:51:59;11.060000;;10.960000;10.520000;;;;;;
43196;SPS30;28816;49.852;18.282;2024-02-15T02:57:01;9.910000;;9.890000;9.390000;;;;;;
43196;SPS30;28816;49.852;18.282;2024-02-15T03:02:03;10.000000;;9.940000;9.460000;;;;;;
43196;SPS30;28816;49.852;18.282;2024-02-15T03:07:05;9.860000;;9.940000;9.280000;;;;;;
43196;SPS30;28816;49.852;18.282;2024-02-15T03:12:07;9.650000;;9.640000;9.070000;;;;;;
43196;SPS30;28816;49.852;18.282;2024-02-15T03:17:09;9.580000;;9.590000;9.070000;;;;;;
43196;SPS30;28816;49.852;18.282;2024-02-15T03:22:11;10.070000;;10.050000;9.490000;;;;;;
43196;SPS30;28816;49.852;18.282;2024-02-15T03:27:13;11.230000;;11.300000;10.550000;;;;;;
43196;SPS30;28816;49.852;18.282;2024-02-15T03:32:15;13.470000;;13.460000;12.660000;;;;;;
43196;SPS30;28816;49.852;18.282;2024-02-15T03:37:17;13.490000;;13.260000;12.490000;;;;;;
43196;SPS30;28816;49.852;18.282;2024-02-15T03:42:19;12.800000;;12.880000;12.030000;;;;;;
43196;SPS30;28816;49.852;18.282;2024-02-15T03:47:21;10.710000;;10.780000;10.090000;;;;;;
43196;SPS30;28816;49.852;18.282;2024-02-15T03:52:23;11.050000;;11.040000;10.320000;;;;;;
43196;SPS30;28816;49.852;18.282;2024-02-15T03:57:25;11.780000;;11.790000;11.090000;;;;;;
43196;SPS30;28816;49.852;18.282;2024-02-15T04:02:27;11.060000;;10.930000;10.320000;;;;;;
43196;SPS30;28816;49.852;18.282;2024-02-15T04:07:30;11.150000;;11.090000;10.520000;;;;;;
43196;SPS30;28816;49.852;18.282;2024-02-15T04:12:32;11.610000;;11.770000;10.880000;;;;;;
43196;SPS30;28816;49.852;18.282;2024-02-15T04:17:34;14.350000;;14.270000;13.570000;;;;;;
43196;SPS30;28816;49.852;18.282;2024-02-15T04:22:37;13.050000;;12.970000;12.170000;;;;;;
43196;SPS30;28816;49.852;18.282;2024-02-15T04:27:38;13.050000;;12.980000;12.280000;;;;;;
43196;SPS30;28816;49.852;18.282;2024-02-15T04:32:40;12.370000;;12.310000;11.700000;;;;;;
43196;SPS30;28816;49.852;18.282;2024-02-15T04:37:43;9.210000;;9.150000;8.750000;;;;;;
43196;SPS30;28816;49.852;18.282;2024-02-15T04:42:45;11.670000;;11.700000;10.970000;;;;;;
43196;SPS30;28816;49.852;18.282;2024-02-15T04:47:47;11.580000;;11.580000;10.950000;;;;;;
43196;SPS30;28816;49.852;18.282;2024-02-15T04:52:49;11.260000;;11.300000;10.490000;;;;;;
43196;SPS30;28816;49.852;18.282;2024-02-15T04:57:51;12.140000;;12.140000;11.320000;;;;;;
43196;SPS30;28816;49.852;18.282;2024-02-15T05:02:53;11.740000;;11.600000;11.170000;;;;;;
43196;SPS30;28816;49.852;18.282;2024-02-15T05:07:55;13.250000;;13.250000;12.520000;;;;;;
43196;SPS30;28816;49.852;18.282;2024-02-15T05:12:57;12.860000;;12.810000;12.240000;;;;;;
43196;SPS30;28816;49.852;18.282;2024-02-15T05:17:59;12.970000;;12.970000;12.080000;;;;;;
43196;SPS30;28816;49.852;18.282;2024-02-15T05:23:01;12.440000;;12.390000;11.690000;;;;;;
43196;SPS30;28816;49.852;18.282;2024-02-15T05:28:03;12.740000;;12.680000;11.880000;;;;;;
43196;SPS30;28816;49.852;18.282;2024-02-15T05:33:05;12.320000;;12.390000;11.610000;;;;;;
43196;SPS30;28816;49.852;18.282;2024-02-15T05:38:06;12.450000;;12.370000;11.810000;;;;;;
43196;SPS30;28816;49.852;18.282;2024-02-15T05:43:09;12.380000;;12.330000;11.480000;;;;;;
43196;SPS30;28816;49.852;18.282;2024-02-15T05:48:11;13.610000;;13.500000;12.600000;;;;;;
43196;SPS30;28816;49.852;18.282;2024-02-15T05:53:12;12.570000;;12.570000;11.900000;;;;;;
43196;SPS30;28816;49.852;18.282;2024-02-15T05:58:15;12.640000;;12.550000;11.900000;;;;;;
43196;SPS30;28816;49.852;18.282;2024-02-15T06:03:17;13.720000;;13.710000;13.040000;;;;;;
43196;SPS30;28816;49.852;18.282;2024-02-15T06:08:19;12.090000;;12.180000;11.410000;;;;;;
43196;SPS30;28816;49.852;18.282;2024-02-15T06:13:21;12.560000;;12.560000;11.880000;;;;;;
43196;SPS30;28816;49.852;18.282;2024-02-15T06:18:23;13.510000;;13.490000;12.710000;;;;;;
43196;SPS30;28816;49.852;18.282;2024-02-15T06:23:26;12.550000;;12.500000;11.940000;;;;;;
43196;SPS30;28816;49.852;18.282;2024-02-15T06:28:28;12.590000;;12.460000;12.020000;;;;;;
43196;SPS30;28816;49.852;18.282;2024-02-15T06:33:30;12.720000;;12.690000;12.080000;;;;;;
43196;SPS30;28816;49.852;18.282;2024-02-15T06:38:32;11.810000;;11.840000;11.150000;;;;;;
43196;SPS30;28816;49.852;18.282;2024-02-15T06:43:34;12.140000;;12.140000;11.500000;;;;;;
43196;SPS30;28816;49.852;18.282;2024-02-15T06:48:36;13.330000;;13.270000;12.690000;;;;;;
43196;SPS30;28816;49.852;18.282;2024-02-15T06:53:41;12.380000;;12.380000;11.650000;;;;;;
43196;SPS30;28816;49.852;18.282;2024-02-15T06:58:43;13.320000;;13.350000;12.570000;;;;;;
43196;SPS30;28816;49.852;18.282;2024-02-15T07:03:46;14.530000;;14.460000;13.790000;;;;;;
43196;SPS30;28816;49.852;18.282;2024-02-15T07:08:48;14.280000;;14.290000;13.450000;;;;;;
43196;SPS30;28816;49.852;18.282;2024-02-15T07:13:51;12.140000;;12.030000;11.460000;;;;;;
43196;SPS30;28816;49.852;18.282;2024-02-15T07:18:53;12.560000;;12.570000;11.790000;;;;;;
43196;SPS30;28816;49.852;18.282;2024-02-15T07:23:55;13.960000;;13.980000;13.130000;;;;;;
43196;SPS30;28816;49.852;18.282;2024-02-15T07:28:57;14.030000;;14.040000;13.260000;;;;;;
43196;SPS30;28816;49.852;18.282;2024-02-15T07:33:59;13.360000;;13.320000;12.640000;;;;;;
43196;SPS30;28816;49.852;18.282;2024-02-15T07:39:01;13.200000;;13.230000;12.440000;;;;;;
43196;SPS30;28816;49.852;18.282;2024-02-15T07:44:03;12.650000;;12.620000;12.010000;;;;;;
43196;SPS30;28816;49.852;18.282;2024-02-15T07:49:04;12.720000;;12.710000;11.900000;;;;;;
43196;SPS30;28816;49.852;18.282;2024-02-15T07:54:07;12.530000;;12.480000;11.810000;;;;;;
43196;SPS30;28816;49.852;18.282;2024-02-15T07:59:08;12.740000;;12.680000;11.870000;;;;;;
43196;SPS30;28816;49.852;18.282;2024-02-15T08:04:10;11.770000;;11.760000;11.130000;;;;;;
43196;SPS30;28816;49.852;18.282;2024-02-15T08:09:12;11.670000;;11.690000;10.960000;;;;;;
43196;SPS30;28816;49.852;18.282;2024-02-15T08:14:14;10.730000;;10.750000;10.090000;;;;;;
43196;SPS30;28816;49.852;18.282;2024-02-15T08:19:17;10.310000;;10.420000;9.620000;;;;;;
43196;SPS30;28816;49.852;18.282;2024-02-15T08:24:18;11.180000;;11.170000;10.590000;;;;;;
43196;SPS30;28816;49.852;18.282;2024-02-15T08:29:20;10.640000;;10.610000;10.010000;;;;;;
43196;SPS30;28816;49.852;18.282;2024-02-15T08:34:22;10.210000;;10.210000;9.590000;;;;;;
43196;SPS30;28816;49.852;18.282;2024-02-15T08:39:24;10.190000;;10.080000;9.720000;;;;;;
43196;SPS30;28816;49.852;18.282;2024-02-15T08:44:26;9.480000;;9.480000;8.930000;;;;;;
43196;SPS30;28816;49.852;18.282;2024-02-15T08:49:28;9.510000;;9.500000;9.050000;;;;;;
43196;SPS30;28816;49.852;18.282;2024-02-15T08:54:30;8.460000;;8.330000;7.830000;;;;;;
43196;SPS30;28816;49.852;18.282;2024-02-15T08:59:31;8.640000;;8.590000;8.210000;;;;;;
43196;SPS30;28816;49.852;18.282;2024-02-15T09:04:33;7.850000;;7.840000;7.380000;;;;;;
43196;SPS30;28816;49.852;18.282;2024-02-15T09:09:36;8.220000;;8.250000;7.700000;;;;;;
43196;SPS30;28816;49.852;18.282;2024-02-15T09:14:37;7.230000;;7.240000;6.870000;;;;;;
43196;SPS30;28816;49.852;18.282;2024-02-15T09:19:40;8.190000;;8.200000;7.720000;;;;;;
43196;SPS30;28816;49.852;18.282;2024-02-15T09:24:42;7.260000;;7.210000;6.850000;;;;;;
43196;SPS30;28816;49.852;18.282;2024-02-15T09:29:45;6.830000;;6.780000;6.510000;;;;;;
43196;SPS30;28816;49.852;18.282;2024-02-15T09:34:48;6.180000;;6.210000;5.820000;;;;;;
43196;SPS30;28816;49.852;18.282;2024-02-15T09:39:50;5.930000;;5.920000;5.590000;;;;;;
43196;SPS30;28816;49.852;18.282;2024-02-15T09:44:52;6.040000;;6.050000;5.740000;;;;;;
43196;SPS30;28816;49.852;18.282;2024-02-15T09:49:54;6.020000;;5.970000;5.690000;;;;;;
43196;SPS30;28816;49.852;18.282;2024-02-15T09:54:58;6.100000;;6.110000;5.780000;;;;;;
43196;SPS30;28816;49.852;18.282;2024-02-15T10:00:02;5.590000;;5.570000;5.290000;;;;;;
43196;SPS30;28816;49.852;18.282;2024-02-15T10:05:04;5.650000;;5.620000;5.310000;;;;;;
43196;SPS30;28816;49.852;18.282;2024-02-15T10:10:07;5.620000;;5.550000;5.150000;;;;;;
43196;SPS30;28816;49.852;18.282;2024-02-15T10:15:14;5.320000;;5.240000;5.050000;;;;;;
43196;SPS30;28816;49.852;18.282;2024-02-15T10:20:33;5.110000;;5.110000;4.850000;;;;;;
43196;SPS30;28816;49.852;18.282;2024-02-15T10:25:35;6.150000;;6.140000;5.840000;;;;;;
43196;SPS30;28816;49.852;18.282;2024-02-15T10:30:38;5.640000;;5.650000;5.310000;;;;;;
43196;SPS30;28816;49.852;18.282;2024-02-15T10:35:40;5.630000;;5.640000;5.330000;;;;;;
43196;SPS30;28816;49.852;18.282;2024-02-15T10:40:42;5.640000;;5.680000;5.270000;;;;;;
43196;SPS30;28816;49.852;18.282;2024-02-15T10:45:46;6.150000;;6.140000;5.810000;;;;;;
43196;SPS30;28816;49.852;18.282;2024-02-15T10:50:48;6.310000;;6.230000;6.000000;;;;;;
43196;SPS30;28816;49.852;18.282;2024-02-15T10:55:51;6.470000;;6.510000;6.110000;;;;;;
43196;SPS30;28816;49.852;18.282;2024-02-15T11:00:59;5.570000;;5.610000;5.270000;;;;;;
43196;SPS30;28816;49.852;18.282;2024-02-15T11:06:02;5.870000;;5.880000;5.550000;;;;;;
43196;SPS30;28816;49.852;18.282;2024-02-15T11:11:05;5.910000;;5.880000;5.610000;;;;;;
43196;SPS30;28816;49.852;18.282;2024-02-15T11:16:08;6.080000;;6.020000;5.770000;;;;;;
43196;SPS30;28816;49.852;18.282;2024-02-15T11:21:10;6.130000;;6.130000;5.770000;;;;;;
43196;SPS30;28816;49.852;18.282;2024-02-15T11:26:12;6.600000;;6.600000;6.230000;;;;;;
43196;SPS30;28816;49.852;18.282;2024-02-15T11:31:47;6.030000;;5.970000;5.740000;;;;;;
43196;SPS30;28816;49.852;18.282;2024-02-15T11:36:53;5.760000;;5.680000;5.480000;;;;;;
43196;SPS30;28816;49.852;18.282;2024-02-15T11:41:55;5.460000;;5.460000;5.170000;;;;;;
43196;SPS30;28816;49.852;18.282;2024-02-15T11:47:24;4.240000;;4.120000;3.910000;;;;;;
43196;SPS30;28816;49.852;18.282;2024-02-15T11:52:26;3.650000;;3.640000;3.350000;;;;;;
43196;SPS30;28816;49.852;18.282;2024-02-15T11:57:29;4.000000;;3.950000;3.800000;;;;;;
43196;SPS30;28816;49.852;18.282;2024-02-15T12:02:31;3.870000;;3.870000;3.680000;;;;;;
43196;SPS30;28816;49.852;18.282;2024-02-15T12:07:33;4.320000;;4.320000;4.050000;;;;;;
43196;SPS30;28816;49.852;18.282;2024-02-15T12:12:35;3.890000;;3.840000;3.720000;;;;;;
43196;SPS30;28816;49.852;18.282;2024-02-15T12:17:50;4.960000;;4.970000;4.640000;;;;;;
43196;SPS30;28816;49.852;18.282;2024-02-15T12:22:51;5.440000;;5.440000;5.120000;;;;;;
43196;SPS30;28816;49.852;18.282;2024-02-15T12:27:54;5.570000;;5.550000;5.310000;;;;;;
43196;SPS30;28816;49.852;18.282;2024-02-15T12:32:59;5.050000;;5.060000;4.750000;;;;;;
43196;SPS30;28816;49.852;18.282;2024-02-15T12:38:08;5.160000;;5.200000;4.820000;;;;;;
43196;SPS30;28816;49.852;18.282;2024-02-15T12:43:12;5.800000;;5.830000;5.460000;;;;;;
43196;SPS30;28816;49.852;18.282;2024-02-15T12:48:15;5.250000;;5.250000;4.950000;;;;;;
43196;SPS30;28816;49.852;18.282;2024-02-15T12:53:18;5.610000;;5.670000;5.310000;;;;;;
43196;SPS30;28816;49.852;18.282;2024-02-15T12:58:21;5.590000;;5.550000;5.300000;;;;;;
43196;SPS30;28816;49.852;18.282;2024-02-15T13:03:23;6.340000;;6.340000;5.990000;;;;;;
43196;SPS30;28816;49.852;18.282;2024-02-15T13:08:25;5.690000;;5.680000;5.370000;;;;;;
43196;SPS30;28816;49.852;18.282;2024-02-15T13:13:27;4.590000;;4.600000;4.330000;;;;;;
43196;SPS30;28816;49.852;18.282;2024-02-15T13:18:29;5.080000;;5.060000;4.830000;;;;;;
43196;SPS30;28816;49.852;18.282;2024-02-15T13:23:31;6.340000;;6.290000;6.050000;;;;;;
43196;SPS30;28816;49.852;18.282;2024-02-15T13:28:33;6.040000;;6.010000;5.720000;;;;;;
43196;SPS30;28816;49.852;18.282;2024-02-15T13:33:36;5.820000;;5.800000;5.520000;;;;;;
43196;SPS30;28816;49.852;18.282;2024-02-15T13:38:38;5.850000;;5.840000;5.590000;;;;;;
43196;SPS30;28816;49.852;18.282;2024-02-15T13:43:40;5.900000;;5.880000;5.630000;;;;;;
43196;SPS30;28816;49.852;18.282;2024-02-15T13:48:43;6.600000;;6.690000;6.190000;;;;;;
43196;SPS30;28816;49.852;18.282;2024-02-15T13:53:45;6.400000;;6.370000;6.020000;;;;;;
43196;SPS30;28816;49.852;18.282;2024-02-15T13:58:46;5.450000;;5.370000;5.170000;;;;;;
43196;SPS30;28816;49.852;18.282;2024-02-15T14:03:48;5.860000;;5.850000;5.530000;;;;;;
43196;SPS30;28816;49.852;18.282;2024-02-15T14:08:50;5.700000;;5.630000;5.320000;;;;;;
43196;SPS30;28816;49.852;18.282;2024-02-15T14:13:53;5.620000;;5.620000;5.310000;;;;;;
43196;SPS30;28816;49.852;18.282;2024-02-15T14:18:55;5.940000;;5.960000;5.600000;;;;;;
43196;SPS30;28816;49.852;18.282;2024-02-15T14:23:57;5.830000;;5.810000;5.520000;;;;;;
43196;SPS30;28816;49.852;18.282;2024-02-15T14:29:00;5.670000;;5.670000;5.370000;;;;;;
43196;SPS30;28816;49.852;18.282;2024-02-15T14:34:02;7.180000;;7.160000;6.680000;;;;;;
43196;SPS30;28816;49.852;18.282;2024-02-15T14:39:04;6.970000;;6.970000;6.550000;;;;;;
43196;SPS30;28816;49.852;18.282;2024-02-15T14:44:05;7.580000;;7.610000;7.130000;;;;;;
43196;SPS30;28816;49.852;18.282;2024-02-15T14:49:07;7.810000;;7.770000;7.430000;;;;;;
43196;SPS30;28816;49.852;18.282;2024-02-15T14:54:09;7.970000;;7.940000;7.560000;;;;;;
43196;SPS30;28816;49.852;18.282;2024-02-15T14:59:11;7.090000;;7.130000;6.670000;;;;;;
43196;SPS30;28816;49.852;18.282;2024-02-15T15:04:13;7.740000;;7.660000;7.400000;;;;;;
43196;SPS30;28816;49.852;18.282;2024-02-15T15:09:15;8.430000;;8.390000;7.860000;;;;;;
43196;SPS30;28816;49.852;18.282;2024-02-15T15:14:16;7.800000;;7.800000;7.320000;;;;;;
43196;SPS30;28816;49.852;18.282;2024-02-15T15:19:18;7.290000;;7.290000;6.850000;;;;;;
43196;SPS30;28816;49.852;18.282;2024-02-15T15:24:20;7.740000;;7.740000;7.270000;;;;;;
43196;SPS30;28816;49.852;18.282;2024-02-15T15:29:22;7.080000;;7.040000;6.730000;;;;;;
43196;SPS30;28816;49.852;18.282;2024-02-15T15:34:24;8.560000;;8.500000;8.120000;;;;;;
43196;SPS30;28816;49.852;18.282;2024-02-15T15:39:26;9.840000;;10.020000;9.130000;;;;;;
43196;SPS30;28816;49.852;18.282;2024-02-15T15:44:28;11.580000;;11.300000;10.460000;;;;;;
43196;SPS30;28816;49.852;18.282;2024-02-15T15:49:30;8.970000;;8.970000;8.370000;;;;;;
43196;SPS30;28816;49.852;18.282;2024-02-15T15:54:32;10.370000;;10.320000;9.800000;;;;;;
43196;SPS30;28816;49.852;18.282;2024-02-15T15:59:34;9.290000;;9.300000;8.720000;;;;;;
43196;SPS30;28816;49.852;18.282;2024-02-15T16:04:36;9.670000;;9.670000;9.110000;;;;;;
43196;SPS30;28816;49.852;18.282;2024-02-15T16:09:42;10.130000;;10.150000;9.500000;;;;;;
43196;SPS30;28816;49.852;18.282;2024-02-15T16:14:44;10.260000;;10.260000;9.700000;;;;;;
43196;SPS30;28816;49.852;18.282;2024-02-15T16:19:47;9.760000;;9.780000;9.220000;;;;;;
43196;SPS30;28816;49.852;18.282;2024-02-15T16:24:50;10.930000;;10.910000;10.300000;;;;;;
43196;SPS30;28816;49.852;18.282;2024-02-15T16:29:51;10.090000;;10.130000;9.510000;;;;;;
43196;SPS30;28816;49.852;18.282;2024-02-15T16:34:53;11.200000;;11.250000;10.580000;;;;;;
43196;SPS30;28816;49.852;18.282;2024-02-15T16:39:55;10.130000;;10.170000;9.610000;;;;;;
43196;SPS30;28816;49.852;18.282;2024-02-15T16:44:57;11.170000;;11.080000;10.650000;;;;;;
43196;SPS30;28816;49.852;18.282;2024-02-15T16:49:59;12.120000;;11.990000;11.360000;;;;;;
43196;SPS30;28816;49.852;18.282;2024-02-15T16:55:02;11.840000;;11.840000;11.210000;;;;;;
43196;SPS30;28816;49.852;18.282;2024-02-15T17:00:05;10.880000;;10.670000;10.230000;;;;;;
43196;SPS30;28816;49.852;18.282;2024-02-15T17:05:07;10.790000;;10.770000;10.270000;;;;;;
43196;SPS30;28816;49.852;18.282;2024-02-15T17:10:09;11.750000;;11.600000;11.130000;;;;;;
43196;SPS30;28816;49.852;18.282;2024-02-15T17:15:11;11.590000;;11.510000;10.800000;;;;;;
43196;SPS30;28816;49.852;18.282;2024-02-15T17:20:13;12.050000;;12.010000;11.390000;;;;;;
43196;SPS30;28816;49.852;18.282;2024-02-15T17:25:14;11.770000;;11.640000;11.290000;;;;;;
43196;SPS30;28816;49.852;18.282;2024-02-15T17:30:16;13.060000;;12.980000;12.410000;;;;;;
43196;SPS30;28816;49.852;18.282;2024-02-15T17:35:18;10.990000;;11.020000;10.350000;;;;;;
43196;SPS30;28816;49.852;18.282;2024-02-15T17:40:20;10.130000;;10.170000;9.490000;;;;;;
43196;SPS30;28816;49.852;18.282;2024-02-15T17:45:22;12.940000;;12.910000;12.050000;;;;;;
43196;SPS30;28816;49.852;18.282;2024-02-15T17:50:24;12.520000;;12.490000;11.840000;;;;;;
43196;SPS30;28816;49.852;18.282;2024-02-15T17:55:26;12.860000;;12.900000;12.060000;;;;;;
43196;SPS30;28816;49.852;18.282;2024-02-15T18:00:28;13.140000;;13.170000;12.370000;;;;;;
43196;SPS30;28816;49.852;18.282;2024-02-15T18:05:29;13.640000;;13.480000;12.770000;;;;;;
43196;SPS30;28816;49.852;18.282;2024-02-15T18:10:31;12.380000;;12.400000;11.640000;;;;;;
43196;SPS30;28816;49.852;18.282;2024-02-15T18:15:33;12.130000;;12.130000;11.470000;;;;;;
43196;SPS30;28816;49.852;18.282;2024-02-15T18:20:35;13.900000;;13.870000;13.130000;;;;;;
43196;SPS30;28816;49.852;18.282;2024-02-15T18:25:37;13.720000;;13.720000;12.930000;;;;;;
43196;SPS30;28816;49.852;18.282;2024-02-15T18:30:39;11.220000;;11.250000;10.590000;;;;;;
43196;SPS30;28816;49.852;18.282;2024-02-15T18:35:41;11.720000;;11.750000;11.010000;;;;;;
43196;SPS30;28816;49.852;18.282;2024-02-15T18:40:43;12.480000;;12.550000;11.660000;;;;;;
43196;SPS30;28816;49.852;18.282;2024-02-15T18:45:46;12.680000;;12.660000;11.990000;;;;;;
43196;SPS30;28816;49.852;18.282;2024-02-15T18:50:48;11.660000;;11.670000;10.920000;;;;;;
43196;SPS30;28816;49.852;18.282;2024-02-15T18:55:49;13.380000;;13.330000;12.630000;;;;;;
43196;SPS30;28816;49.852;18.282;2024-02-15T19:00:52;14.320000;;14.350000;13.450000;;;;;;
43196;SPS30;28816;49.852;18.282;2024-02-15T19:05:55;13.810000;;13.710000;13.120000;;;;;;
43196;SPS30;28816;49.852;18.282;2024-02-15T19:10:56;14.910000;;14.930000;13.940000;;;;;;
43196;SPS30;28816;49.852;18.282;2024-02-15T19:15:59;12.790000;;12.770000;12.160000;;;;;;
43196;SPS30;28816;49.852;18.282;2024-02-15T19:21:00;14.510000;;14.380000;13.560000;;;;;;
43196;SPS30;28816;49.852;18.282;2024-02-15T19:26:02;15.830000;;15.910000;14.900000;;;;;;
43196;SPS30;28816;49.852;18.282;2024-02-15T19:31:05;16.780000;;16.650000;15.730000;;;;;;
43196;SPS30;28816;49.852;18.282;2024-02-15T19:36:07;18.770000;;18.690000;17.460000;;;;;;
43196;SPS30;28816;49.852;18.282;2024-02-15T19:41:08;16.860000;;16.900000;16.010000;;;;;;
43196;SPS30;28816;49.852;18.282;2024-02-15T19:46:10;16.850000;;16.860000;15.890000;;;;;;
43196;SPS30;28816;49.852;18.282;2024-02-15T19:51:12;17.130000;;16.950000;16.340000;;;;;;
43196;SPS30;28816;49.852;18.282;2024-02-15T19:56:15;16.990000;;16.930000;16.030000;;;;;;
43196;SPS30;28816;49.852;18.282;2024-02-15T20:01:17;17.670000;;17.410000;16.690000;;;;;;
43196;SPS30;28816;49.852;18.282;2024-02-15T20:06:19;16.420000;;16.330000;15.320000;;;;;;
43196;SPS30;28816;49.852;18.282;2024-02-15T20:11:21;16.870000;;16.670000;15.790000;;;;;;
43196;SPS30;28816;49.852;18.282;2024-02-15T20:16:24;16.320000;;16.290000;15.440000;;;;;;
43196;SPS30;28816;49.852;18.282;2024-02-15T20:21:26;16.830000;;16.760000;15.970000;;;;;;
43196;SPS30;28816;49.852;18.282;2024-02-15T20:26:31;17.100000;;17.030000;16.000000;;;;;;
43196;SPS30;28816;49.852;18.282;2024-02-15T20:31:34;17.070000;;16.870000;15.760000;;;;;;
43196;SPS30;28816;49.852;18.282;2024-02-15T20:36:36;18.500000;;18.460000;17.350000;;;;;;
43196;SPS30;28816;49.852;18.282;2024-02-15T20:41:37;18.980000;;18.910000;17.640000;;;;;;
43196;SPS30;28816;49.852;18.282;2024-02-15T20:46:39;17.720000;;17.750000;16.640000;;;;;;
43196;SPS30;28816;49.852;18.282;2024-02-15T20:51:42;18.770000;;18.880000;17.660000;;;;;;
43196;SPS30;28816;49.852;18.282;2024-02-15T20:56:43;18.460000;;18.550000;17.280000;;;;;;
43196;SPS30;28816;49.852;18.282;2024-02-15T21:01:46;18.660000;;18.580000;17.300000;;;;;;
43196;SPS30;28816;49.852;18.282;2024-02-15T21:06:48;18.670000;;18.680000;17.390000;;;;;;
43196;SPS30;28816;49.852;18.282;2024-02-15T21:11:50;18.440000;;18.410000;17.520000;;;;;;
43196;SPS30;28816;49.852;18.282;2024-02-15T21:16:52;18.170000;;18.010000;17.010000;;;;;;
43196;SPS30;28816;49.852;18.282;2024-02-15T21:21:55;19.350000;;19.380000;18.050000;;;;;;
43196;SPS30;28816;49.852;18.282;2024-02-15T21:26:58;19.410000;;19.350000;18.240000;;;;;;
43196;SPS30;28816;49.852;18.282;2024-02-15T21:31:59;18.590000;;18.530000;17.530000;;;;;;
43196;SPS30;28816;49.852;18.282;2024-02-15T21:37:02;19.440000;;19.300000;18.350000;;;;;;
43196;SPS30;28816;49.852;18.282;2024-02-15T21:42:04;19.240000;;18.950000;17.860000;;;;;;
43196;SPS30;28816;49.852;18.282;2024-02-15T21:47:06;18.850000;;18.850000;17.580000;;;;;;
43196;SPS30;28816;49.852;18.282;2024-02-15T21:52:09;19.680000;;19.710000;18.590000;;;;;;
43196;SPS30;28816;49.852;18.282;2024-02-15T21:57:11;18.480000;;18.300000;17.030000;;;;;;
43196;SPS30;28816;49.852;18.282;2024-02-15T22:02:13;19.010000;;19.010000;17.700000;;;;;;
43196;SPS30;28816;49.852;18.282;2024-02-15T22:07:15;19.540000;;19.430000;18.270000;;;;;;
43196;SPS30;28816;49.852;18.282;2024-02-15T22:12:17;18.150000;;17.960000;17.110000;;;;;;
43196;SPS30;28816;49.852;18.282;2024-02-15T22:17:19;18.810000;;18.640000;17.750000;;;;;;
43196;SPS30;28816;49.852;18.282;2024-02-15T22:22:21;19.800000;;19.710000;18.620000;;;;;;
43196;SPS30;28816;49.852;18.282;2024-02-15T22:27:23;19.860000;;19.650000;18.430000;;;;;;
43196;SPS30;28816;49.852;18.282;2024-02-15T22:32:24;19.690000;;19.710000;18.600000;;;;;;
43196;SPS30;28816;49.852;18.282;2024-02-15T22:37:26;19.340000;;19.320000;18.270000;;;;;;
43196;SPS30;28816;49.852;18.282;2024-02-15T22:42:28;20.190000;;20.090000;18.960000;;;;;;
43196;SPS30;28816;49.852;18.282;2024-02-15T22:47:30;19.160000;;19.180000;18.040000;;;;;;